LCPH Airport Information

Runway Information
Runway 11 Length 8858 ft width 148 ft
Elevation 41 ft Threshold 0 ft Heading 110
Runway 29 Length 8858 ft Width 148 ft
Elevation 30 ft Threshold 0 ft Heading 290
Airport Frequencies
Type APP Name APP Frequency 120.8 MHZ
Type TWR Name TWR Frequency 119.9 MHZ
Airport Navaids
Type TACAN Name Pafos Frequency 113200 KHZ
Type VOR-DME Name Pafos Frequency 117900 KHZ
Type NDB Name Pafos Frequency 328 KHZ
Airport Weather Information & NOTAM
ADDS - METARS form results

(1929 UTC 24 June 2019)
Data provider http://aviationweather.gov/metar/data/
 
METAR text: LCPH 241900Z 31005KT CAVOK 26/24 Q1009
Conditions at: LCPH (PAPHOS/BAF INTL , CY) observed 1900 UTC 24 June 2019
Temperature: 26.0°C (79°F)
Dewpoint: 24.0°C (75°F) [RH = 89%]
Pressure (altimeter): 29.79 inches Hg (1009.0 mb)
Winds: from the NW (310 degrees) at 6 MPH (5 knots; 2.6 m/s)
Visibility: 6 or more miles (10+ km)
Ceiling: ceiling and visibility are OK
Clouds: unknown
Weather: no significant weather observed at this time

METAR text: LCPH 241830Z 29008KT CAVOK 26/24 Q1009
Conditions at: LCPH (PAPHOS/BAF INTL , CY) observed 1830 UTC 24 June 2019
Temperature: 26.0°C (79°F)
Dewpoint: 24.0°C (75°F) [RH = 89%]
Pressure (altimeter): 29.79 inches Hg (1009.0 mb)
Winds: from the WNW (290 degrees) at 9 MPH (8 knots; 4.1 m/s)
Visibility: 6 or more miles (10+ km)
Ceiling: ceiling and visibility are OK
Clouds: unknown
Weather: no significant weather observed at this time

Forecast for: LCPH (PAPHOS/BAF INTL , CY)
Text: TAF LCPH 241730Z 2418/2518 35008KT 9999 FEW020
Forecast period: 1800 UTC 24 June 2019 to 0800 UTC 25 June 2019
Forecast type: FROM: standard forecast or significant change
Winds: from the N (350 degrees) at 9 MPH (8 knots; 4.1 m/s)
Visibility: 6 or more miles 10+ km)
Ceiling: at least 12,000 feet AGL
Clouds: few clouds at 2000 feet AGL
Weather: no significant weather forecast for this period
Text: BECMG 2508/2511 26010KT
Forecast period: 0800 to 1800 UTC 25 June 2019
Forecast type: BECOMING: Conditions expected to become as follows by 1100 UTC 25 June 2019
Winds: from the W (260 degrees) at 12 MPH (10 knots; 5.1 m/s)
Visibility: 6 or more miles 10+ km)
Ceiling: at least 12,000 feet AGL
Clouds: few clouds at 2000 feet AGL
Weather: no significant weather forecast for this period